Airfield :







YOU CAN JOIN US ON...

 
LOGIN :

Register | Disclaimer

   EN    FR    IT 

 









Legend :    VFR   Marginal VFR   IFR   Intensive IFR   Very Intensive IFR
Visi :
Ceiling :
>= 8 km
>= 3000ft
5 to 8 km
1000 to 3000 ft
1500m to 5 km
500 to 1000 ft
800 to 1500m
200 to 500 ft
< 800m
< 200 ft
Symbols :   Thunderstorms  Fog  Heavy snow  Heavy precipitations  Wind > 20 kt






- Airport Elevation : 1040 ft


KAFN - Jaffrey Silver Ranch

CURRENT METAR :
  • 170451Z AUTO VRB04G19KT 2 1/2SM +RA BR BKN010 OVC016 12/10 A2921 RMK AO2 PRESFR SLP896 P0036 T01170100 401501011

EXPIRED METARs :
  • 170436Z AUTO 3SM RA BR BKN010 OVC016 12/10 A2926 RMK AO2 PRESFR P0025 T01170100
  • 170423Z AUTO 3SM +RA BR SCT010 BKN015 OVC022 12/10 A2928 RMK AO2 PRESFR P0018 T01170100
  • 170403Z AUTO 06006G20KT 3SM +RA BR BKN008 OVC013 12/10 A2932 RMK AO2 P0005 T01170100
  • 170352Z AUTO 05009G18KT 010V120 5SM RA BR BKN010 OVC015 12/10 A2933 RMK AO2 PRESFR SLP937 P0016 T01170100
  • 170259Z AUTO 05009G19KT 010V110 4SM RA BR BKN009 BKN015 OVC043 11/09 A2942 RMK AO2 PRESFR P0003 T01110094
  • 170252Z AUTO VRB06G18KT 4SM RA BR BKN011 OVC042 11/09 A2943 RMK AO2 PRESFR SLP972 P0024 60047 T01110094 56065
  • 170247Z AUTO 04009G18KT 350V090 4SM RA BR FEW007 BKN013 OVC042 11/09 A2945 RMK AO2 PRESFR P0021

TAF N/A



MET'MAP, your aeronautical weather chart ! - Copyright ORBIFLY December 2007 - Disclaimer

ORBIFLY MET'MAP TEAM :

Programming & Development : Alexandra Zaïnal
Concept & Development : Baudouin d'Aumeries
Co-Development & Prog : Marc-Olivier Méhu
Technical & hardware support : Manuel Goepfert

Contact : metmap@orbifly.com




SOURCES & CREDITS :

   NOAA